• Join FlightAware (Why Join?)
  • Login
  • US Flag 
Rudolph Flight #1: Arrived! 
01:17PM EST


 

Airport Tracker/Info


-or-


 

Live Flight TrackerFlight Track Log ✈ N843DW ✈ 06-Nov-2013 ✈ KPIR - KCRG

Flight Track Log - Related Links

Times and Time Zones

All times are in EST time to prevent confusion due to time zone crossing. See the N843DW flight status page for this flight to view local times or setup timezone preferences in your user account.

Time Position Orientation Groundspeed Altitude Reporting Facility
EST Latitude Longitude Course Direction KTS MPH feet Rate Location/Type
11:18AM 44.3594 -100.2619 125° Southeast 228 262 2,900  Level Minneapolis Center
11:19AM 44.3217 -100.1847 124° Southeast 242 278 6,400 3,840 Climbing Minneapolis Center
11:20AM 44.2747 -100.0858 124° Southeast 269 310 10,800 4,140 Climbing Minneapolis Center
11:21AM 44.2211 -99.9728 123° Southeast 316 364 15,000 4,080 Climbing Minneapolis Center
11:22AM 43.9729 -99.5395 130° Southeast  Level Estimated
11:22AM 44.1639 -99.8539 124° Southeast 354 407 19,200  Level Minneapolis Center
11:23AM 43.9042 -99.4161 125° Southeast  Level Estimated
11:23AM 44.1061 -99.7333 124° Southeast 369 425 22,700  Level Minneapolis Center
11:24AM 44.0339 -99.5864 124° Southeast 381 438 26,400 3,060 Climbing Minneapolis Center
11:25AM 43.9739 -99.4614 124° Southeast 387 445 29,100 2,220 Climbing Minneapolis Center
11:26AM 43.9361 -99.3181 110° East 402 463 31,100 1,860 Climbing Minneapolis Center
11:27AM 43.9094 -99.1675 104° East 405 466 33,000 1,620 Climbing Minneapolis Center
11:28AM 43.8814 -99.0150 104° East 408 470 34,500 1,440 Climbing Minneapolis Center
11:29AM 43.8506 -98.8619 106° East 414 476 36,000 1,560 Climbing Minneapolis Center
11:30AM 43.7775 -98.7083 123° Southeast 403 464 37,800 1,380 Climbing Minneapolis Center
11:31AM 43.7197 -98.6111 129° Southeast 393 452 38,900 960 Climbing Minneapolis Center
11:32AM 43.6386 -98.4728 129° Southeast 388 447 39,900 780 Climbing Minneapolis Center
11:33AM 43.5683 -98.3547 129° Southeast 397 457 40,600 480 Climbing Minneapolis Center
11:34AM 43.4972 -98.2342 129° Southeast 404 465 41,000 180 Climbing Minneapolis Center
11:35AM 43.4242 -98.1108 129° Southeast 412 474 41,000  Level Minneapolis Center
11:36AM 43.3475 -97.9817 129° Southeast 427 491 41,000  Level Minneapolis Center
11:37AM 43.2664 -97.8472 130° Southeast 449 517 41,000  Level Minneapolis Center
11:38AM 43.1697 -97.6858 129° Southeast 457 526 41,000  Level Minneapolis Center
11:39AM 43.0886 -97.5517 130° Southeast 459 528 41,000  Level Minneapolis Center
11:40AM 43.0069 -97.4172 130° Southeast 461 531 41,000  Level Minneapolis Center
11:41AM 42.9258 -97.2831 130° Southeast 461 531 41,000  Level Minneapolis Center
11:42AM 42.8447 -97.1508 130° Southeast 458 527 41,000  Level Minneapolis Center
11:43AM 42.7639 -97.0186 130° Southeast 457 526 41,000  Level Minneapolis Center
11:44AM 42.6711 -96.8711 131° Southeast 456 525 41,000  Level Minneapolis Center
11:45AM 42.5900 -96.7406 130° Southeast 454 522 41,000  Level Minneapolis Center
11:47AM 42.5078 -96.6064 130° Southeast 460 529 41,000  Level Minneapolis Center
11:48AM 42.4258 -96.4758 130° Southeast 456 525 41,000  Level Minneapolis Center
11:49AM 42.3433 -96.3461 131° Southeast 456 525 41,000  Level Minneapolis Center
11:50AM 42.2450 -96.1900 130° Southeast 454 522 41,000  Level Minneapolis Center
11:51AM 42.1625 -96.0617 131° Southeast 452 520 41,000  Level Minneapolis Center
11:52AM 42.0794 -95.9314 131° Southeast 455 524 41,000  Level Minneapolis Center
11:53AM 41.9964 -95.8000 130° Southeast 458 527 41,000  Level Minneapolis Center
11:54AM 41.9125 -95.6708 131° Southeast 453 521 41,000  Level Minneapolis Center
11:55AM 41.8294 -95.5408 131° Southeast 459 528 41,000  Level Minneapolis Center
11:56AM 41.7433 -95.4106 132° Southeast 461 531 41,000  Level Minneapolis Center
11:57AM 41.6606 -95.2814 131° Southeast 456 525 41,000  Level Minneapolis Center
11:58AM 41.5603 -95.1306 132° Southeast 450 518 41,000  Level Minneapolis Center
11:59AM 41.4769 -95.0036 131° Southeast 452 520 41,000  Level Minneapolis Center
12:00PM 41.3928 -94.8772 132° Southeast 454 522 41,000  Level Minneapolis Center
12:01PM 41.3069 -94.7506 132° Southeast 457 526 41,000  Level Minneapolis Center
12:02PM 41.2225 -94.6253 132° Southeast 455 524 41,000  Level Minneapolis Center
12:03PM 41.1397 -94.5008 131° Southeast 452 520 41,000  Level Minneapolis Center
12:04PM 41.0597 -94.3819 132° Southeast 454 522 41,000  Level Minneapolis Center
12:05PM 40.9581 -94.2314 132° Southeast 458 527 41,000  Level Minneapolis Center
12:06PM 40.8722 -94.1067 132° Southeast 461 531 41,000  Level Minneapolis Center
12:07PM 40.7867 -93.9806 132° Southeast 463 533 41,000  Level Minneapolis Center
12:08PM 40.7019 -93.8547 132° Southeast 464 534 41,000  Level Minneapolis Center
12:09PM 40.6164 -93.7297 132° Southeast 463 533 41,000  Level Minneapolis Center
12:10PM 40.5144 -93.5831 132° Southeast 459 528 41,000  Level Minneapolis Center
12:11PM 40.4636 -93.5092 132° Southeast 456 525 41,000 360 Level Kansas City Center
12:12PM 40.3808 -93.3892 132° Southeast 451 519 41,700 780 Climbing Kansas City Center
12:13PM 40.3000 -93.2742 133° Southeast 438 504 42,700 600 Climbing Kansas City Center
12:14PM 40.2086 -93.1372 131° Southeast 426 490 43,000 120 Climbing Kansas City Center
12:15PM 40.1336 -93.0333 133° Southeast 426 490 43,000  Level Kansas City Center
12:16PM 40.0478 -92.9100 132° Southeast 431 496 43,000  Level Kansas City Center
12:17PM 39.9678 -92.7972 133° Southeast 432 497 43,000  Level Kansas City Center
12:18PM 39.8722 -92.6625 133° Southeast 429 494 43,000  Level Kansas City Center
12:19PM 39.7925 -92.5483 132° Southeast 430 495 43,000  Level Kansas City Center
12:20PM 39.7119 -92.4375 133° Southeast 429 494 43,000  Level Kansas City Center
12:21PM 39.6311 -92.3247 133° Southeast 429 494 43,000  Level Kansas City Center
12:22PM 39.5500 -92.2139 133° Southeast 428 493 43,000  Level Kansas City Center
12:23PM 39.4528 -92.0778 133° Southeast 430 495 43,000  Level Kansas City Center
12:24PM 39.3703 -91.9669 134° Southeast 431 496 43,000  Level Kansas City Center
12:25PM 39.2889 -91.8558 133° Southeast 431 496 43,000 -240 Level Kansas City Center
12:26PM 39.2058 -91.7433 134° Southeast 430 495 42,600 -480 Descending Kansas City Center
12:27PM 39.1200 -91.6264 133° Southeast 435 501 42,100 -540 Descending Kansas City Center
12:28PM 39.0347 -91.5111 134° Southeast 442 509 41,600 -540 Descending Kansas City Center
12:29PM 38.9319 -91.3731 134° Southeast 446 513 41,000 -300 Descending Kansas City Center
12:31PM 38.8458 -91.2594 134° Southeast 446 513 41,000  Level Kansas City Center
12:32PM 38.7600 -91.1447 134° Southeast 447 514 41,000  Level Kansas City Center
12:33PM 38.6747 -91.0314 134° Southeast 446 513 41,000  Level Kansas City Center
12:34PM 38.5889 -90.9172 134° Southeast 448 516 41,000  Level Kansas City Center
12:35PM 38.4856 -90.7825 134° Southeast 448 516 41,000  Level Kansas City Center
12:36PM 38.4003 -90.6697 134° Southeast 447 514 41,000  Level Kansas City Center
12:37PM 38.3147 -90.5572 134° Southeast 446 513 41,000  Level Kansas City Center
12:38PM 38.2278 -90.4444 134° Southeast 449 517 41,000  Level Kansas City Center
12:39PM 38.1408 -90.3317 134° Southeast 450 518 41,000  Level Kansas City Center
12:40PM 38.0364 -90.1936 134° Southeast 453 521 41,000  Level Kansas City Center
12:41PM 37.9494 -90.0806 134° Southeast 451 519 41,000  Level Kansas City Center
12:42PM 37.8597 -89.9669 135° Southeast 451 519 41,000  Level Kansas City Center
12:43PM 37.7728 -89.8533 134° Southeast 455 524 41,000  Level Kansas City Center
12:44PM 37.6847 -89.7400 134° Southeast 455 524 41,000  Level Kansas City Center
12:45PM 37.5789 -89.6056 135° Southeast 452 520 41,000  Level Kansas City Center
12:46PM 37.5008 -89.5050 134° Southeast 451 519 41,000  Level Kansas City Center
12:47PM 37.3947 -89.3706 135° Southeast 450 518 41,000  Level Kansas City Center
12:48PM 37.3083 -89.2642 136° Southeast 452 520 41,000  Level Memphis Center
12:49PM 37.2197 -89.1536 135° Southeast 452 520 41,000  Level Memphis Center
12:50PM 37.1311 -89.0431 135° Southeast 452 520 41,000  Level Memphis Center
12:51PM 37.0444 -88.9328 135° Southeast 452 520 41,000  Level Memphis Center
12:52PM 36.9536 -88.8200 135° Southeast 452 520 41,000  Level Memphis Center
12:53PM 36.8817 -88.7306 135° Southeast 452 520 41,000  Level Memphis Center
12:54PM 36.7819 -88.6083 136° Southeast 452 520 41,000  Level Memphis Center
12:55PM 36.6928 -88.4964 135° Southeast 452 520 41,000  Level Memphis Center
12:56PM 36.6036 -88.3900 136° Southeast 452 520 41,000  Level Memphis Center
12:57PM 36.5144 -88.2811 136° Southeast 452 520 41,000  Level Memphis Center
12:58PM 36.4269 -88.1725 135° Southeast 452 520 41,000  Level Memphis Center
12:59PM 36.3292 -88.0617 138° Southeast 434 499 41,000  Level Memphis Center
01:00PM 36.2417 -87.9561 136° Southeast 434 499 41,000  Level Memphis Center
01:01PM 36.1542 -87.8508 136° Southeast 434 499 41,000  Level Memphis Center
01:02PM 36.0622 -87.7431 137° Southeast 434 499 41,000  Level Memphis Center
01:03PM 35.9722 -87.6358 136° Southeast 439 505 41,000  Level Memphis Center
01:04PM 35.8953 -87.5433 136° Southeast 434 499 41,000  Level Memphis Center
01:06PM 35.7200 -87.3383 136° Southeast 426 490 41,000  Level Atlanta Center
01:07PM 35.6311 -87.2300 135° Southeast 438 504 41,000  Level Atlanta Center
01:08PM 35.5317 -87.1164 137° Southeast 438 504 41,000  Level Atlanta Center
01:09PM 35.4425 -87.0111 136° Southeast 438 504 41,000  Level Atlanta Center
01:10PM 35.3675 -86.9142 133° Southeast 438 504 41,000  Level Atlanta Center
01:11PM 35.2783 -86.8067 135° Southeast 438 504 41,000  Level Atlanta Center
01:12PM 35.1867 -86.7019 137° Southeast 438 504 41,000  Level Atlanta Center
01:13PM 35.0969 -86.5975 136° Southeast 438 504 41,000  Level Atlanta Center
01:14PM 35.0033 -86.4908 137° Southeast 443 510 41,000  Level Atlanta Center
01:15PM 34.9136 -86.3869 136° Southeast 443 510 41,000  Level Atlanta Center
01:16PM 34.8236 -86.2856 137° Southeast 443 510 41,000  Level Atlanta Center
01:17PM 34.7314 -86.1819 137° Southeast 443 510 41,000  Level Atlanta Center
01:18PM 34.6414 -86.0789 137° Southeast 443 510 41,000  Level Atlanta Center
01:19PM 34.5514 -85.9756 137° Southeast 443 510 41,000  Level Atlanta Center
01:20PM 34.4608 -85.8778 138° Southeast 438 504 41,000  Level Atlanta Center
01:21PM 34.3769 -85.7781 136° Southeast 428 493 41,000  Level Atlanta Center
01:22PM 34.2842 -85.6781 138° Southeast 434 499 41,000  Level Atlanta Center
01:23PM 34.1958 -85.5758 136° Southeast 439 505 41,000  Level Atlanta Center
01:24PM 34.1072 -85.4764 137° Southeast 439 505 41,000  Level Atlanta Center
01:25PM 34.0144 -85.3772 138° Southeast 439 505 41,000  Level Atlanta Center
01:26PM 33.9236 -85.2756 137° Southeast 439 505 41,000  Level Atlanta Center
01:27PM 33.8267 -85.1717 138° Southeast 434 499 41,000  Level Atlanta Center
01:28PM 33.7356 -85.0706 137° Southeast 440 506 41,000  Level Atlanta Center
01:29PM 33.6425 -84.9719 139° Southeast 440 506 41,000  Level Atlanta Center
01:30PM 33.5536 -84.8739 137° Southeast 433 498 41,000  Level Atlanta Center
01:31PM 33.4644 -84.7733 137° Southeast 433 498 41,000  Level Atlanta Center
01:32PM 33.3731 -84.6756 138° Southeast 438 504 41,000  Level Atlanta Center
01:33PM 33.2817 -84.5781 138° Southeast 438 504 41,000  Level Atlanta Center
01:34PM 33.1922 -84.4781 137° Southeast 438 504 41,000  Level Atlanta Center
01:35PM 33.1008 -84.3836 139° Southeast 438 504 41,000  Level Atlanta Center
01:36PM 33.0092 -84.2842 138° Southeast 438 504 41,000  Level Atlanta Center
01:37PM 32.9300 -84.1947 137° Southeast 438 504 41,000  Level Atlanta Center
01:38PM 32.8403 -84.0908 136° Southeast 438 504 41,000 -420 Level Atlanta Center
01:39PM 32.7506 -83.9969 139° Southeast 438 504 40,200 -900 Descending Atlanta Center
01:40PM 32.6586 -83.8983 138° Southeast 438 504 39,200 -1,020 Descending Atlanta Center
01:41PM 32.5667 -83.7972 137° Southeast 438 504 38,200 -1,020 Descending Atlanta Center
01:42PM 32.4808 -83.6892 133° Southeast 438 504 37,200 -1,080 Descending Atlanta Center
01:43PM 32.3950 -83.5814 133° Southeast 443 510 36,100 -1,560 Descending Atlanta Center
01:44PM 32.3108 -83.4736 133° Southeast 448 516 34,100 -2,280 Descending Atlanta Center
01:45PM 32.2247 -83.3661 133° Southeast 448 516 31,600 -2,580 Descending Atlanta Center
01:46PM 32.1014 -83.2114 133° Southeast 443 510 28,100 -2,820 Descending Jacksonville Center
01:47PM 32.0181 -83.1058 133° Southeast 438 504 25,100 -2,640 Descending Jacksonville Center
01:48PM 31.9369 -83.0053 134° Southeast 433 498 22,900 -1,560 Descending Jacksonville Center
01:49PM 31.8514 -82.9169 139° Southeast 418 481 22,000 -480 Descending Jacksonville Center
01:50PM 31.7511 -82.8486 150° Southeast 413 475 22,000  Level Jacksonville Center
01:51PM 31.6528 -82.7853 151° Southeast 413 475 22,000  Level Jacksonville Center
01:52PM 31.5650 -82.7072 143° Southeast 400 460 22,000 -120 Level Jacksonville Center
01:53PM 31.4772 -82.6222 140° Southeast 405 466 21,800 -1,080 Descending Jacksonville Center
01:54PM 31.3914 -82.5347 139° Southeast 412 474 19,900 -1,860 Descending Jacksonville Center
01:55PM 31.3056 -82.4550 142° Southeast 407 468 18,100 -1,800 Descending Jacksonville Center
01:56PM 31.2258 -82.3750 139° Southeast 396 456 16,300 -1,860 Descending Jacksonville Center
01:57PM 31.1461 -82.3003 141° Southeast 374 430 14,400 -1,860 Descending Jacksonville Center
01:58PM 31.0644 -82.2183 139° Southeast 358 412 12,600 -1,260 Descending Jacksonville Center
01:59PM 30.9908 -82.1511 142° Southeast 369 425 12,000 -600 Descending Jacksonville Center
01:59PM 30.9889 -82.1414 103° East 359 413 12,000 -240 Level Jacksonville Center
02:00PM 30.9175 -82.0742 141° Southeast 363 418 11,800 -300 Descending Jacksonville Center
02:00PM 30.9133 -82.0692 134° Southeast 353 406 11,700 -1,140 Descending Jacksonville Center
02:01PM 30.8458 -82.0069 142° Southeast 345 397 10,700 -1,020 Descending Jacksonville Center
02:01PM 30.8417 -82.0022 136° Southeast 318 366 10,700 -1,200 Level Jacksonville Center
02:02PM 30.7789 -81.9519 145° Southeast 321 369 9,500 -1,320 Descending Jacksonville Center
02:02PM 30.7725 -81.9472 148° Southeast 284 327 9,400 -1,440 Descending Jacksonville Center
02:03PM 30.7178 -81.8994 143° Southeast 292 336 8,100 -1,500 Descending Jacksonville Center
02:03PM 30.7158 -81.8994 180° South 275 316 8,000 -1,440 Descending Jacksonville Center
02:04PM 30.6547 -81.8494 145° Southeast 280 322 6,700 -1,380 Descending Jacksonville Center
02:05PM 30.6464 -81.8397 135° Southeast 279 321 6,500 -720 Descending Jacksonville Center
02:05PM 30.5939 -81.7994 147° Southeast 280 322 6,000 -600 Descending Jacksonville Center
02:06PM 30.5853 -81.7897 136° Southeast 265 305 5,900 -1,440 Descending Jacksonville Center
02:06PM 30.5369 -81.7494 144° Southeast 269 310 4,600 -1,620 Descending Jacksonville Center
02:07PM 30.5264 -81.7447 159° South 258 297 4,300 -540 Descending Jacksonville Center
02:08PM 30.4656 -81.6947 145° Southeast 254 292 4,000 -180 Descending Jacksonville Center
02:09PM 30.4214 -81.6519 140° Southeast 239 275 4,000  Level Jacksonville Center
02:10PM 30.4144 -81.5869 97° East 174 200 4,000 -840 Level Jacksonville Center
02:11PM 30.3661 -81.5733 166° South 205 236 2,300 -1,020 Descending Jacksonville Center
02:12PM 30.3183 -81.5811 188° South 167 192 2,000 -780 Descending Jacksonville Center
02:13PM 30.3033 -81.5500 119° Southeast 149 171 900 -1,200 Descending Jacksonville Center
02:15PM 30.3363 -81.5144 131° Southeast  Level Estimated
02:22PM 30.3363 -81.5144 131° Southeast  Level Estimated